Terminal Aerodrome Forecast
Issued by NWS

Home | Current Version | Previous Version | Text Only | Print | Product List | Glossary On
Versions: 1 2 3 4 5 6 7 8 9 10 11 12 13 14 15 16 17 18 19 20 21 22 23 24 25
000
FTUS43 KABR 241759 CCA
TAFATY
TAF COR
KATY 241759Z 2418/2518 08008KT 4SM -RA BR OVC015
     FM242000 08009KT P6SM OVC025
     FM250000 06006KT P6SM OVC010
      TEMPO 2503/2506 4SM -RA BR SCT008 BKN015 OVC025
     FM250600 01006KT 4SM -RA BR OVC008
     FM251600 33007KT P6SM -SHRA OVC015=

USA.gov is the U.S. government's official web portal to all federal, state and local government web resources and services.